Aeroporto :
LOGIN :

Iscrizione | Disclaimer

   EN    FR    IT 

 










Sommario :    VFR   VFR Marginale   IFR   IFR Intensivo   IFR Molto Intensivo
Visibilità : 
Base nubi : 
>= 8 km
>= 3000ft
5 / 8 km
1000 / 3000 ft
1500m / 5 km
500 / 1000 ft
800 / 1500m
200 / 500 ft
< 800m
< 200 ft
Simboli :   Temporali  Nebbia  Neve Forte  Precipitazioni Forti  Vento > 20 kt
SIGMETs :   Varie  Temporali  Ghiacco  Turbolenza  Onda orograficha  Ceneri Vulcaniche






- Altitudine del aeroporto : 242 ft
- Codice IATA : DUB


EIDW - Dublin

ULTIMO METAR :
  • 241730Z 28023KT 9999 FEW022 SCT042 06/02 Q1003 NOSIG

METARs OBSOLETI :
  • 241700Z 28020KT 9999 FEW022 SCT042 07/02 Q1003 NOSIG
  • 241630Z 27020KT 9999 FEW022 SCT038 07/02 Q1002 NOSIG
  • 241600Z 28024KT 9999 FEW022 SCT037 07/03 Q1002 NOSIG
  • 241530Z 28021KT 9999 -SHRA FEW022 SCT034 07/03 Q1001 NOSIG
  • 241500Z 28027KT 9999 FEW022 SCT037 08/02 Q1001 NOSIG

TAF TAF EIDW
Valido dal 24 a 18 ore il 25 a 18 ore UTC


241700Z 2418/2518 26020KT 9999 SCT015 BKN030
BECMG 2419/2421 25015KT
PROB30
TEMPO 2503/2518 26018G30KT -SHRAGS FEW018CB BKN020



MetMap, La meteo Aeronautica in un colpo d'occhio ! - Copyright ORBIFLY Dicembre 2007 - Disclaimer

ORBIFLY MET'MAP TEAM :

Programmazione e sviluppo : Alexandra Zaïnal
Concezione : Baudouin d'Aumeries
Aiuto per la programmazione : Marc-Olivier Méhu
Supporto tecnico e logistico : Manuel Goepfert
Aiuto per la traduzione : Arnaldo La Scala

Contatto : metmap@orbifly.com




FONTI E CREDITI :

   NOAA